Time,TemperatureF,DewpointF,PressureIn,WindDirection,WindDirectionDegrees,WindSpeedMPH,WindSpeedGustMPH,Humidity,HourlyPrecipIn,Conditions,Clouds,dailyrainin,SolarRadiationWatts/m^2,SoftwareType,DateUTC
2013-11-07 00:22:00,50.0,44.0,-100.00,WNW,291,4.0,7.0,80,0.00,,,0.01,108.000000,,2013-11-07 00:22:00,
2013-11-07 00:32:00,50.0,44.0,-100.00,WNW,291,4.0,7.0,80,0.00,,,0.01,108.000000,,2013-11-07 00:32:00,
2013-11-07 00:42:00,50.0,44.0,-100.00,WNW,291,4.0,7.0,80,0.00,,,0.01,108.000000,,2013-11-07 00:42:00,
2013-11-07 00:52:00,50.0,44.0,-100.00,WNW,291,4.0,7.0,80,0.00,,,0.01,108.000000,,2013-11-07 00:52:00,
2013-11-07 01:22:00,48.0,43.0,-100.00,South,191,0.0,5.0,84,0.00,,,0.01,27.000000,,2013-11-07 01:22:00,
2013-11-07 01:32:00,48.0,43.0,-100.00,South,191,0.0,5.0,84,0.00,,,0.01,27.000000,,2013-11-07 01:32:00,
2013-11-07 01:42:00,48.0,43.0,-100.00,South,191,0.0,5.0,84,0.00,,,0.01,27.000000,,2013-11-07 01:42:00,
2013-11-07 01:52:00,48.0,43.0,-100.00,South,191,0.0,5.0,84,0.00,,,0.01,27.000000,,2013-11-07 01:52:00,
2013-11-07 02:22:00,46.0,43.0,-100.00,East,87,1.0,4.0,90,0.00,,,0.01,0.000000,,2013-11-07 02:22:00,
2013-11-07 02:32:00,46.0,43.0,-100.00,East,87,1.0,4.0,90,0.00,,,0.01,0.000000,,2013-11-07 02:32:00,
2013-11-07 02:42:00,46.0,43.0,-100.00,East,87,1.0,4.0,90,0.00,,,0.01,0.000000,,2013-11-07 02:42:00,
2013-11-07 02:53:00,46.0,43.0,-100.00,East,87,1.0,4.0,90,0.00,,,0.01,0.000000,,2013-11-07 02:53:00,
2013-11-07 03:21:00,46.0,43.0,-100.00,ESE,107,1.0,3.0,90,0.00,,,0.01,0.000000,,2013-11-07 03:21:00,
2013-11-07 03:32:00,46.0,43.0,-100.00,ESE,107,1.0,3.0,90,0.00,,,0.01,0.000000,,2013-11-07 03:32:00,
2013-11-07 03:44:00,46.0,43.0,-100.00,ESE,107,1.0,3.0,90,0.00,,,0.01,0.000000,,2013-11-07 03:44:00,
2013-11-07 03:54:00,46.0,43.0,-100.00,ESE,107,1.0,3.0,90,0.00,,,0.01,0.000000,,2013-11-07 03:54:00,
2013-11-07 04:24:00,45.0,43.0,-100.00,NE,48,1.0,4.0,91,0.00,,,0.01,0.000000,,2013-11-07 04:24:00,
2013-11-07 04:34:00,45.0,43.0,-100.00,NE,48,1.0,4.0,91,0.00,,,0.01,0.000000,,2013-11-07 04:34:00,
2013-11-07 04:43:00,45.0,43.0,-100.00,NE,48,1.0,4.0,91,0.00,,,0.01,0.000000,,2013-11-07 04:43:00,
2013-11-07 04:53:00,45.0,43.0,-100.00,NE,48,1.0,4.0,91,0.00,,,0.01,0.000000,,2013-11-07 04:53:00,
2013-11-07 05:23:00,44.0,42.0,-100.00,East,98,2.0,3.0,94,0.00,,,0.00,0.000000,,2013-11-07 05:23:00,
2013-11-07 05:34:00,44.0,42.0,-100.00,East,98,2.0,3.0,94,0.00,,,0.00,0.000000,,2013-11-07 05:34:00,
2013-11-07 05:44:00,44.0,42.0,-100.00,East,98,2.0,3.0,94,0.00,,,0.00,0.000000,,2013-11-07 05:44:00,
2013-11-07 05:54:00,44.0,42.0,-100.00,East,98,2.0,3.0,94,0.00,,,0.00,0.000000,,2013-11-07 05:54:00,
2013-11-07 06:23:00,44.0,43.0,-100.00,NNW,333,2.0,3.0,96,0.00,,,0.00,0.000000,,2013-11-07 06:23:00,
2013-11-07 06:32:00,44.0,43.0,-100.00,NNW,333,2.0,3.0,96,0.00,,,0.00,0.000000,,2013-11-07 06:32:00,
2013-11-07 06:42:00,44.0,43.0,-100.00,NNW,333,2.0,3.0,96,0.00,,,0.00,0.000000,,2013-11-07 06:42:00,
2013-11-07 06:52:00,44.0,43.0,-100.00,NNW,333,2.0,3.0,96,0.00,,,0.00,0.000000,,2013-11-07 06:52:00,
2013-11-07 07:21:00,44.0,42.0,-100.00,East,96,2.0,3.0,94,0.00,,,0.00,0.000000,,2013-11-07 07:21:00,
2013-11-07 07:32:00,44.0,42.0,-100.00,East,96,2.0,3.0,94,0.00,,,0.00,0.000000,,2013-11-07 07:32:00,
2013-11-07 07:42:00,44.0,42.0,-100.00,East,96,2.0,3.0,94,0.00,,,0.00,0.000000,,2013-11-07 07:42:00,
2013-11-07 07:52:00,44.0,42.0,-100.00,East,96,2.0,3.0,94,0.00,,,0.00,0.000000,,2013-11-07 07:52:00,
2013-11-07 08:22:00,43.0,42.0,-100.00,North,349,1.0,4.0,97,0.00,,,0.00,0.000000,,2013-11-07 08:22:00,
2013-11-07 08:32:00,43.0,42.0,-100.00,North,349,1.0,4.0,97,0.00,,,0.00,0.000000,,2013-11-07 08:32:00,
2013-11-07 08:42:00,43.0,42.0,-100.00,North,349,1.0,4.0,97,0.00,,,0.00,0.000000,,2013-11-07 08:42:00,
2013-11-07 08:52:00,43.0,42.0,-100.00,North,349,1.0,4.0,97,0.00,,,0.00,0.000000,,2013-11-07 08:52:00,
2013-11-07 09:21:00,41.0,40.0,-100.00,NW,309,5.0,7.0,97,0.00,,,0.00,0.000000,,2013-11-07 09:21:00,
2013-11-07 09:33:00,41.0,40.0,-100.00,NW,309,5.0,7.0,97,0.00,,,0.00,0.000000,,2013-11-07 09:33:00,
2013-11-07 09:42:00,41.0,40.0,-100.00,NW,309,5.0,7.0,97,0.00,,,0.00,0.000000,,2013-11-07 09:42:00,
2013-11-07 09:53:00,41.0,40.0,-100.00,NW,309,5.0,7.0,97,0.00,,,0.00,0.000000,,2013-11-07 09:53:00,
2013-11-07 10:23:00,40.0,40.0,-100.00,East,98,3.0,7.0,99,0.00,,,0.00,0.000000,,2013-11-07 10:23:00,
2013-11-07 10:33:00,40.0,40.0,-100.00,East,98,3.0,7.0,99,0.00,,,0.00,0.000000,,2013-11-07 10:33:00,
2013-11-07 10:42:00,40.0,40.0,-100.00,East,98,3.0,7.0,99,0.00,,,0.00,0.000000,,2013-11-07 10:42:00,
2013-11-07 10:52:00,40.0,40.0,-100.00,East,98,3.0,7.0,99,0.00,,,0.00,0.000000,,2013-11-07 10:52:00,
2013-11-07 11:22:00,42.0,41.0,-100.00,ESE,123,2.0,5.0,96,0.00,,,0.00,0.000000,,2013-11-07 11:22:00,
2013-11-07 11:42:00,42.0,41.0,-100.00,ESE,123,2.0,5.0,96,0.00,,,0.00,0.000000,,2013-11-07 11:42:00,
2013-11-07 11:52:00,42.0,41.0,-100.00,ESE,123,2.0,5.0,96,0.00,,,0.00,0.000000,,2013-11-07 11:52:00,
2013-11-07 12:22:00,44.0,41.0,-100.00,West,259,1.0,4.0,90,0.00,,,0.00,0.000000,,2013-11-07 12:22:00,
2013-11-07 12:32:00,44.0,41.0,-100.00,West,259,1.0,4.0,90,0.00,,,0.00,0.000000,,2013-11-07 12:32:00,
2013-11-07 12:42:00,44.0,41.0,-100.00,West,259,1.0,4.0,90,0.00,,,0.00,0.000000,,2013-11-07 12:42:00,
2013-11-07 12:52:00,44.0,41.0,-100.00,West,259,1.0,4.0,90,0.00,,,0.00,0.000000,,2013-11-07 12:52:00,
2013-11-07 13:21:00,43.0,39.0,-100.00,South,171,5.0,9.0,87,0.00,,,0.00,0.000000,,2013-11-07 13:21:00,
2013-11-07 13:32:00,43.0,39.0,-100.00,South,171,5.0,9.0,87,0.00,,,0.00,0.000000,,2013-11-07 13:32:00,
2013-11-07 13:42:00,43.0,39.0,-100.00,South,171,5.0,9.0,87,0.00,,,0.00,0.000000,,2013-11-07 13:42:00,
2013-11-07 13:52:00,43.0,39.0,-100.00,South,171,5.0,9.0,87,0.00,,,0.00,0.000000,,2013-11-07 13:52:00,
2013-11-07 14:22:00,42.0,39.0,-100.00,NNE,14,1.0,7.0,88,0.00,,,0.00,0.000000,,2013-11-07 14:22:00,
2013-11-07 14:32:00,42.0,39.0,-100.00,NNE,14,1.0,7.0,88,0.00,,,0.00,0.000000,,2013-11-07 14:32:00,
2013-11-07 14:42:00,42.0,39.0,-100.00,NNE,14,1.0,7.0,88,0.00,,,0.00,0.000000,,2013-11-07 14:42:00,
2013-11-07 14:52:00,42.0,39.0,-100.00,NNE,14,1.0,7.0,88,0.00,,,0.00,0.000000,,2013-11-07 14:52:00,
2013-11-07 15:22:00,45.0,39.0,-100.00,SSW,208,7.0,12.0,78,0.00,,,0.00,0.000000,,2013-11-07 15:22:00,
2013-11-07 15:33:00,45.0,39.0,-100.00,SSW,208,7.0,12.0,78,0.00,,,0.00,0.000000,,2013-11-07 15:33:00,
2013-11-07 15:43:00,45.0,39.0,-100.00,SSW,208,7.0,12.0,78,0.00,,,0.00,0.000000,,2013-11-07 15:43:00,
2013-11-07 15:53:00,45.0,39.0,-100.00,SSW,208,7.0,12.0,78,0.00,,,0.00,0.000000,,2013-11-07 15:53:00,
2013-11-07 16:23:00,48.0,38.0,-100.00,SSW,200,9.0,18.0,67,0.00,,,0.00,16.000000,,2013-11-07 16:23:00,
2013-11-07 16:33:00,48.0,38.0,-100.00,SSW,200,9.0,18.0,67,0.00,,,0.00,16.000000,,2013-11-07 16:33:00,
2013-11-07 16:42:00,48.0,38.0,-100.00,SSW,200,9.0,18.0,67,0.00,,,0.00,16.000000,,2013-11-07 16:42:00,
2013-11-07 16:52:00,48.0,38.0,-100.00,SSW,200,9.0,18.0,67,0.00,,,0.00,16.000000,,2013-11-07 16:52:00,
2013-11-07 17:22:00,49.0,38.0,-100.00,SW,225,8.0,18.0,66,0.00,,,0.00,125.000000,,2013-11-07 17:22:00,
2013-11-07 17:33:00,49.0,38.0,-100.00,SW,225,8.0,18.0,66,0.00,,,0.00,125.000000,,2013-11-07 17:33:00,
2013-11-07 17:42:00,49.0,38.0,-100.00,SW,225,8.0,18.0,66,0.00,,,0.00,125.000000,,2013-11-07 17:42:00,
2013-11-07 17:52:00,49.0,38.0,-100.00,SW,225,8.0,18.0,66,0.00,,,0.00,125.000000,,2013-11-07 17:52:00,
2013-11-07 18:23:00,52.0,38.0,-100.00,SW,225,14.0,25.0,58,0.00,,,0.00,138.000000,,2013-11-07 18:23:00,
2013-11-07 18:32:00,52.0,38.0,-100.00,SW,225,14.0,25.0,58,0.00,,,0.00,138.000000,,2013-11-07 18:32:00,
2013-11-07 18:42:00,52.0,38.0,-100.00,SW,225,14.0,25.0,58,0.00,,,0.00,138.000000,,2013-11-07 18:42:00,
2013-11-07 18:52:00,52.0,38.0,-100.00,SW,225,14.0,25.0,58,0.00,,,0.00,138.000000,,2013-11-07 18:52:00,
2013-11-07 19:21:00,52.0,39.0,-100.00,WSW,248,15.0,21.0,62,0.00,,,0.00,180.000000,,2013-11-07 19:21:00,
2013-11-07 19:32:00,52.0,39.0,-100.00,WSW,248,15.0,21.0,62,0.00,,,0.00,180.000000,,2013-11-07 19:32:00,
2013-11-07 19:42:00,52.0,39.0,-100.00,WSW,248,15.0,21.0,62,0.00,,,0.00,180.000000,,2013-11-07 19:42:00,
2013-11-07 19:52:00,52.0,39.0,-100.00,WSW,248,15.0,21.0,62,0.00,,,0.00,180.000000,,2013-11-07 19:52:00,
2013-11-07 20:21:00,50.0,39.0,-100.00,SW,236,15.0,25.0,66,0.00,,,0.00,108.000000,,2013-11-07 20:21:00,
2013-11-07 20:32:00,50.0,39.0,-100.00,SW,236,15.0,25.0,66,0.00,,,0.00,108.000000,,2013-11-07 20:32:00,
2013-11-07 20:42:00,50.0,39.0,-100.00,SW,236,15.0,25.0,66,0.00,,,0.00,108.000000,,2013-11-07 20:42:00,
2013-11-07 20:52:00,50.0,39.0,-100.00,SW,236,15.0,25.0,66,0.00,,,0.00,108.000000,,2013-11-07 20:52:00,
2013-11-07 21:22:00,51.0,40.0,-100.00,SW,235,19.0,30.0,66,0.00,,,0.00,232.000000,,2013-11-07 21:22:00,
2013-11-07 21:34:00,51.0,40.0,-100.00,SW,235,19.0,30.0,66,0.00,,,0.00,232.000000,,2013-11-07 21:34:00,
2013-11-07 21:43:00,51.0,40.0,-100.00,SW,235,19.0,30.0,66,0.00,,,0.00,232.000000,,2013-11-07 21:43:00,
2013-11-07 21:53:00,51.0,40.0,-100.00,SW,235,19.0,30.0,66,0.00,,,0.00,232.000000,,2013-11-07 21:53:00,
2013-11-07 22:23:00,50.0,38.0,-100.00,WSW,241,19.0,34.0,64,0.00,,,0.00,230.000000,,2013-11-07 22:23:00,
2013-11-07 22:33:00,50.0,38.0,-100.00,WSW,241,19.0,34.0,64,0.00,,,0.00,230.000000,,2013-11-07 22:33:00,
2013-11-07 22:43:00,50.0,38.0,-100.00,WSW,241,19.0,34.0,64,0.00,,,0.00,230.000000,,2013-11-07 22:43:00,
2013-11-07 22:53:00,50.0,38.0,-100.00,WSW,241,19.0,34.0,64,0.00,,,0.00,230.000000,,2013-11-07 22:53:00,
2013-11-07 23:22:00,47.0,40.0,-100.00,WSW,243,18.0,34.0,77,0.00,,,0.00,81.000000,,2013-11-07 23:22:00,
2013-11-07 23:34:00,47.0,40.0,-100.00,WSW,243,18.0,34.0,77,0.00,,,0.00,81.000000,,2013-11-07 23:34:00,
2013-11-07 23:43:00,47.0,40.0,-100.00,WSW,243,18.0,34.0,77,0.00,,,0.00,81.000000,,2013-11-07 23:43:00,
2013-11-07 23:53:00,47.0,40.0,-100.00,WSW,243,18.0,34.0,77,0.00,,,0.00,81.000000,,2013-11-07 23:53:00,